Latest Coastal Weather Observations for Weipa

IDQ60701

Issued at 3:25 pm EST Wednesday 26 November 2014 (issued every 10 minutes, with the page automatically refreshed every 10 minutes)

About coastal observations | Map of coastal stations | Coastal observations for QLD | Marine services | Other Formats
Station Details ID: 027045 Name: WEIPA AERO Lat: -12.68 Lon: 141.92 Height: 17.96 m
Data from the previous 72 hours. | See also: Recent months at Weipa
Date/Time
EST
Temp

°C
Wind Pressure Rain
since 9am
mm
Weather Cloud Vis
km
Sea
Height
m
Swell
Dir
 
Speed
knots
Gust
knots
hPa Trend Height
m
Period
s
Dir
26/03:00pm 37.3 E 7 12 1004.7 - 0.0 - Mostly clear 10 - - - -
26/02:30pm 36.3 E 12 22 1005.3 - 0.0 - Partly cloudy 10 - - - -
26/02:00pm 35.3 NE 9 16 1005.7 - 0.0 - Partly cloudy 10 - - - -
26/01:30pm 35.4 ENE 11 21 1006.0 - 0.0 - Partly cloudy 10 - - - -
26/01:00pm 34.6 NE 9 15 1006.5 - 0.0 - Partly cloudy 10 - - - -
26/12:30pm 36.3 E 11 19 1006.9 - 0.0 - Partly cloudy 10 - - - -
26/12:00pm 33.8 NE 10 17 1007.3 - 0.0 - Partly cloudy 10 - - - -
26/11:30am 33.7 E 10 13 1008.0 - 0.0 - Partly cloudy 10 - - - -
26/11:00am 32.5 E 7 16 1008.3 - 0.0 - Partly cloudy 10 - - - -
26/10:30am 31.6 E 9 16 1008.8 - 0.0 - Partly cloudy 10 - - - -
26/10:00am 31.8 E 9 16 1009.0 - 0.0 - Partly cloudy 10 - - - -
26/09:30am 30.3 E 11 17 1009.2 - 0.0 - Partly cloudy 10 - - - -
26/09:00am 30.2 E 9 15 1008.8 - 0.0 - Partly cloudy 10 - - - -
26/08:30am 29.2 SE 12 15 1009.0 - 0.0 - Partly cloudy 10 - - - -
26/08:00am 28.3 SE 6 11 1008.9 - 0.0 - - 10 - - - -
26/07:30am 26.2 SSE 3 5 1008.6 - 0.0 - - 10 - - - -
26/07:00am 25.1 SSE 3 5 1008.6 - 0.0 - - 10 - - - -
26/06:30am 24.4 SSE 3 4 1008.4 - 0.0 - - 10 - - - -
26/06:00am 23.8 S 2 3 1007.9 F 0.0 Shallow fog Partly cloudy 15 - - - -
26/05:30am 24.2 S 2 4 1007.9 - 0.0 - Partly cloudy 10 - - - -
26/05:00am 24.1 S 2 4 1007.6 - 0.0 - Partly cloudy 10 - - - -
26/04:30am 24.2 S 3 3 1007.2 - 0.0 - - 10 - - - -
26/04:00am 24.5 S 3 3 1007.1 - 0.0 - Partly cloudy 10 - - - -
26/03:30am 24.7 SE 2 4 1007.2 - 0.0 - Partly cloudy 10 - - - -
26/03:00am 24.6 S 1 2 1007.4 - 0.0 - Mostly clear 10 - - - -
26/02:30am 25.0 S 1 2 1007.7 - 0.0 - Partly cloudy 10 - - - -
26/02:00am 25.5 SE 2 3 1007.9 - 0.0 - Partly cloudy 10 - - - -
26/01:30am 25.8 SSE 3 4 1008.2 - 0.0 - Partly cloudy 10 - - - -
26/01:00am 26.1 SE 3 6 1008.4 - 0.0 - - 10 - - - -
26/12:30am 26.5 SE 4 7 1008.9 - 0.0 - - 10 - - - -
26/12:00am 26.9 E 7 10 1008.9 - 0.0 - - 10 - - - -
 
Date/Time
EST
Temp

°C
Wind Pressure Rain
since 9am
mm
Weather Cloud Vis
km
Sea
Height
m
Swell
Dir
 
Speed
knots
Gust
knots
hPa Trend Height
m
Period
s
Dir
25/11:30pm 27.3 ESE 9 13 1009.5 - 0.0 - - 10 - - - -
25/11:00pm 27.7 E 9 15 1009.3 - 0.0 - - 10 - - - -
25/10:30pm 28.0 E 11 14 1009.3 - 0.0 - - 10 - - - -
25/10:00pm 26.4 SSW 2 3 1009.1 - 0.0 - - 10 - - - -
25/09:30pm 26.7 SW 2 5 1008.8 - 0.0 - Cloudy 10 - - - -
25/09:00pm 27.3 SSW 1 2 1008.2 - 0.0 - Cloudy 10 - - - -
25/08:30pm 27.3 ESE 4 7 1007.9 - 0.0 - Cloudy 10 - - - -
25/08:00pm 26.9 S 2 5 1007.8 - 0.0 - Partly cloudy 10 - - - -
25/07:30pm 27.9 S 6 11 1007.7 - 0.0 - Partly cloudy 10 - - - -
25/07:00pm 29.1 N 3 5 1006.9 - 0.0 - Partly cloudy 10 - - - -
25/06:30pm 29.1 W 5 11 1006.6 - 0.0 - Partly cloudy 10 - - - -
25/06:00pm 29.4 W 6 9 1006.2 - 0.0 - Mostly cloudy 10 - - - -
25/05:30pm 29.6 W 7 14 1006.0 - 0.0 - Partly cloudy 10 - - - -
25/05:00pm 29.7 W 9 17 1005.6 - 0.0 - Partly cloudy 10 - - - -
25/04:30pm 30.0 WNW 9 14 1005.2 - 0.0 - Partly cloudy 10 - - - -
25/04:00pm 29.7 W 10 14 1005.4 - 0.0 - Partly cloudy 10 - - - -
25/03:39pm 30.6 WNW 15 26 1005.1 - 0.0 - Partly cloudy 10 - - - -
25/03:36pm 31.4 NW 19 26 1004.8 - 0.0 - Partly cloudy 10 - - - -
25/03:30pm 36.0 E 8 11 1005.0 - 0.0 - Partly cloudy 10 - - - -
25/03:00pm 35.9 ESE 12 16 1004.9 - 0.0 - Mostly cloudy 10 - - - -
25/02:30pm 36.3 E 10 14 1005.2 - 0.0 - Partly cloudy 10 - - - -
25/02:00pm 36.2 ESE 7 14 1005.6 - 0.0 - Partly cloudy 10 - - - -
25/01:30pm 35.2 E 7 14 1006.2 - 0.0 - Partly cloudy 10 - - - -
25/01:00pm 32.6 ENE 7 13 1006.8 - 0.0 - Partly cloudy 10 - - - -
25/12:30pm 35.1 SE 10 15 1007.3 - 0.0 - Partly cloudy 10 - - - -
25/12:00pm 34.7 E 8 12 1007.8 F 0.0 Fine Mostly cloudy 35 - - - -
25/11:30am 34.7 ESE 8 17 1008.5 - 0.0 - Partly cloudy 10 - - - -
25/11:00am 33.8 ESE 10 19 1008.9 - 0.0 - Partly cloudy 10 - - - -
25/10:30am 32.7 ESE 10 14 1009.2 - 0.0 - Partly cloudy 10 - - - -
25/10:00am 31.9 ESE 11 17 1009.5 - 0.0 - Partly cloudy 10 - - - -
25/09:30am 30.7 SE 10 14 1010.0 - 0.0 - Partly cloudy 10 - - - -
25/09:00am 29.8 SE 11 14 1010.0 F 0.0 Haze Mostly cloudy 25 - - - -
25/08:30am 28.7 ESE 8 13 1010.3 - 0.0 - - 10 - - - -
25/08:00am 27.1 SE 5 9 1010.2 - 0.0 - Mostly clear 10 - - - -
25/07:30am 26.1 SSE 4 6 1009.9 - 0.0 - - 10 - - - -
25/07:00am 25.2 S 3 5 1009.9 - 0.0 - - 10 - - - -
25/06:30am 23.6 SE 1 2 1009.1 - 0.0 - - 10 - - - -
25/06:00am 22.7 SSE 2 3 1009.1 F 0.0 Haze Mostly cloudy 20 - - - -
25/05:30am 22.7 CALM 0 1 1009.2 - 0.0 - - 10 - - - -
25/05:00am 22.8 CALM 0 1 1008.8 - 0.0 - - 10 - - - -
25/04:30am 22.8 S 1 2 1008.8 - 0.0 - - 10 - - - -
25/04:00am 23.3 CALM 0 2 1008.6 - 0.0 - - 10 - - - -
25/03:30am 23.7 CALM 0 1 1008.8 - 0.0 - - 10 - - - -
25/03:00am 23.7 ENE 1 2 1008.8 - 0.0 - - 10 - - - -
25/02:30am 24.2 E 1 2 1009.3 - 0.0 - - 10 - - - -
25/02:00am 24.9 ESE 2 3 1009.5 - 0.0 - - 10 - - - -
25/01:30am 25.6 E 2 3 1009.8 - 0.0 - - 10 - - - -
25/01:00am 26.0 E 3 5 1010.0 - 0.0 - - 10 - - - -
25/12:30am 26.2 E 5 7 1010.4 - 0.0 - - 10 - - - -
25/12:00am 26.3 E 2 5 1010.3 - 0.0 - - 10 - - - -
 
Date/Time
EST
Temp

°C
Wind Pressure Rain
since 9am
mm
Weather Cloud Vis
km
Sea
Height
m
Swell
Dir
 
Speed
knots
Gust
knots
hPa Trend Height
m
Period
s
Dir
24/11:30pm 26.8 E 3 5 1010.8 - 0.0 - Partly cloudy 10 - - - -
24/11:00pm 27.1 E 3 6 1011.1 - 0.0 - - 10 - - - -
24/10:30pm 27.2 E 5 7 1010.7 - 0.0 - - 10 - - - -
24/10:00pm 27.2 ESE 2 5 1010.4 - 0.0 - - 10 - - - -
24/09:30pm 27.2 SE 2 4 1009.6 - 0.0 - - 10 - - - -
24/09:00pm 27.3 E 2 3 1009.0 - 0.0 - - 10 - - - -
24/08:30pm 27.7 NNE 1 3 1008.8 - 0.0 - Partly cloudy 10 - - - -
24/08:00pm 28.0 WNW 2 4 1008.7 - 0.0 - - 10 - - - -
24/07:30pm 28.2 W 2 5 1008.3 - 0.0 - Partly cloudy 10 - - - -
24/07:00pm 28.4 W 4 6 1008.0 - 0.0 - Partly cloudy 10 - - - -
24/06:30pm 28.7 W 4 9 1007.8 - 0.0 - Partly cloudy 10 - - - -
24/06:00pm 29.1 W 5 10 1007.2 - 0.0 - Mostly cloudy 10 - - - -
24/05:30pm 29.3 W 9 14 1007.0 - 0.0 - Partly cloudy 10 - - - -
24/05:00pm 29.2 W 7 15 1006.9 - 0.0 - Partly cloudy 10 - - - -
24/04:30pm 29.7 W 9 16 1006.7 - 0.0 - Partly cloudy 10 - - - -
24/04:00pm 30.2 W 11 18 1006.5 - 0.0 - Partly cloudy 10 - - - -
24/03:49pm 30.9 WNW 7 12 1006.4 - 0.0 - Partly cloudy 10 - - - -
24/03:30pm 35.9 ENE 6 11 1006.1 - 0.0 - Partly cloudy 10 - - - -
24/03:00pm 36.8 E 11 19 1006.0 F 0.0 Fine Mostly cloudy 35 - - - -
24/02:30pm 36.9 ENE 10 16 1006.5 - 0.0 - Partly cloudy 10 - - - -
24/02:00pm 36.9 E 10 14 1007.0 - 0.0 - Partly cloudy 10 - - - -
24/01:30pm 36.0 E 11 17 1007.5 - 0.0 - Partly cloudy 10 - - - -
24/01:00pm 35.0 E 5 10 1008.0 - 0.0 - Partly cloudy 10 - - - -
24/12:30pm 34.0 E 7 16 1008.6 - 0.0 - Partly cloudy 10 - - - -
24/12:00pm 33.5 E 13 17 1009.1 F 0.0 Fine Mostly cloudy 35 - - - -
24/11:30am 33.7 E 8 15 1009.8 - 0.0 - Partly cloudy 10 - - - -
24/11:00am 32.7 ESE 8 14 1010.3 - 0.0 - Partly cloudy 10 - - - -
24/10:30am 31.1 ENE 9 17 1010.7 - 0.0 - Partly cloudy 10 - - - -
24/10:00am 30.7 E 9 13 1011.0 - 0.0 - Partly cloudy 10 - - - -
24/09:30am 30.3 E 10 14 1011.2 - 0.0 - - 10 - - - -
24/09:00am 29.1 E 9 19 1011.3 S 0.0 Fine Partly cloudy 30 - - - -
24/08:30am 28.4 E 12 18 1011.6 - 0.0 - Partly cloudy 10 - - - -
24/08:00am 27.2 SE 6 9 1011.7 - 0.0 - Mostly clear 10 - - - -
24/07:30am 26.4 SSE 4 6 1011.3 - 0.0 - - 10 - - - -
24/07:00am 25.2 SSE 3 4 1011.0 - 0.0 - - 10 - - - -
24/06:30am 23.9 SSE 3 5 1010.4 - 0.0 - - 10 - - - -
24/06:00am 23.2 SE 1 2 1009.8 F 0.0 Haze Mostly clear 25 - - - -
24/05:30am 23.1 SSE 3 4 1010.0 - 0.0 - - 10 - - - -
24/05:00am 23.1 S 1 3 1009.9 - 0.0 - - 10 - - - -
24/04:30am 23.2 CALM 0 0 1009.7 - 0.0 - - 10 - - - -
24/04:00am 23.3 NE 1 1 1009.8 - 0.0 - Partly cloudy 10 - - - -
24/03:30am 23.7 S 1 2 1009.9 - 0.0 - - 10 - - - -
24/03:00am 24.3 CALM 0 0 1009.8 - 0.0 - Mostly clear 10 - - - -
24/02:30am 25.0 E 1 2 1010.1 - 0.0 - Partly cloudy 10 - - - -
24/02:00am 25.3 E 2 3 1010.0 - 0.0 - - 10 - - - -
24/01:30am 25.8 ESE 3 5 1010.5 - 0.0 - - 10 - - - -
24/01:00am 26.2 ESE 4 6 1011.0 - 0.0 - - 10 - - - -
24/12:30am 26.5 E 7 10 1011.4 - 0.0 - - 10 - - - -
24/12:00am 27.0 ESE 5 7 1011.6 - 0.0 - - 10 - - - -
 
Date/Time
EST
Temp

°C
Wind Pressure Rain
since 9am
mm
Weather Cloud Vis
km
Sea
Height
m
Swell
Dir
 
Speed
knots
Gust
knots
hPa Trend Height
m
Period
s
Dir
23/11:30pm 27.6 E 7 11 1011.9 - 0.0 - - 10 - - - -
23/11:00pm 28.0 E 6 10 1011.9 - 0.0 - - 10 - - - -
23/10:30pm 28.6 E 6 10 1011.7 - 0.0 - - 10 - - - -
23/10:00pm 28.3 E 4 6 1011.3 - 0.0 - - 10 - - - -
23/09:30pm 28.8 SSE 1 2 1011.1 - 0.0 - Partly cloudy 10 - - - -
23/09:00pm 28.9 W 1 2 1010.6 - 0.0 - Mostly clear 10 - - - -
23/08:30pm 29.2 SE 1 3 1010.3 - 0.0 - Partly cloudy 10 - - - -
23/08:00pm 29.4 SSW 2 3 1010.1 - 0.0 - Partly cloudy 10 - - - -
23/07:30pm 29.3 WSW 2 4 1009.6 - 0.0 - Partly cloudy 10 - - - -
23/07:00pm 29.3 W 3 5 1008.8 - 0.0 - Partly cloudy 10 - - - -
23/06:30pm 29.5 W 6 10 1008.6 - 0.0 - Partly cloudy 10 - - - -
23/06:00pm 30.0 W 5 12 1008.2 - 0.0 - Mostly clear 10 - - - -
23/05:30pm 30.5 W 9 13 1007.8 - 0.0 - - 10 - - - -
23/05:00pm 30.6 W 9 15 1007.6 - 0.0 - Partly cloudy 10 - - - -
23/04:30pm 31.4 W 9 15 1007.5 - 0.0 - - 10 - - - -
23/04:00pm 32.1 W 10 18 1007.4 - 0.0 - - 10 - - - -
23/03:30pm 31.2 W 15 23 1007.6 - 0.0 - Partly cloudy 10 - - - -

Other Formats:

Comma delimited format used in spreadsheet applications
http://www.bom.gov.au/fwo/IDQ60701/IDQ60701.94170.axf

JavaScript Object Notation format (JSON) in row-major order
http://www.bom.gov.au/fwo/IDQ60701/IDQ60701.94170.json